sensor_id;sensor_type;location;lat;lon;timestamp;temperature;humidity
37460;DHT22;23318;50.966;5.284;2023-12-20T00:01:05;6.50;99.90
37460;DHT22;23318;50.966;5.284;2023-12-20T00:03:30;6.50;99.90
37460;DHT22;23318;50.966;5.284;2023-12-20T00:05:56;6.40;99.90
37460;DHT22;23318;50.966;5.284;2023-12-20T00:08:22;6.40;99.90
37460;DHT22;23318;50.966;5.284;2023-12-20T00:10:47;6.30;99.90
37460;DHT22;23318;50.966;5.284;2023-12-20T00:13:13;6.20;99.90
37460;DHT22;23318;50.966;5.284;2023-12-20T00:15:39;6.30;99.90
37460;DHT22;23318;50.966;5.284;2023-12-20T00:18:04;6.30;99.90
37460;DHT22;23318;50.966;5.284;2023-12-20T00:20:30;6.20;99.90
37460;DHT22;23318;50.966;5.284;2023-12-20T00:22:57;6.20;99.90
37460;DHT22;23318;50.966;5.284;2023-12-20T00:25:23;6.10;99.90
37460;DHT22;23318;50.966;5.284;2023-12-20T00:27:49;6.10;99.90
37460;DHT22;23318;50.966;5.284;2023-12-20T00:30:15;6.10;99.90
37460;DHT22;23318;50.966;5.284;2023-12-20T00:32:41;6.00;99.90
37460;DHT22;23318;50.966;5.284;2023-12-20T00:35:15;6.00;99.90
37460;DHT22;23318;50.966;5.284;2023-12-20T00:37:41;6.00;99.90
37460;DHT22;23318;50.966;5.284;2023-12-20T00:40:07;5.80;99.90
37460;DHT22;23318;50.966;5.284;2023-12-20T00:42:33;5.90;99.90
37460;DHT22;23318;50.966;5.284;2023-12-20T00:44:59;5.90;99.90
37460;DHT22;23318;50.966;5.284;2023-12-20T00:47:25;6.00;99.90
37460;DHT22;23318;50.966;5.284;2023-12-20T00:49:51;6.00;99.90
37460;DHT22;23318;50.966;5.284;2023-12-20T00:52:16;6.00;99.90
37460;DHT22;23318;50.966;5.284;2023-12-20T00:54:45;5.90;99.90
37460;DHT22;23318;50.966;5.284;2023-12-20T00:57:11;5.80;99.90
37460;DHT22;23318;50.966;5.284;2023-12-20T00:59:36;5.70;99.90
37460;DHT22;23318;50.966;5.284;2023-12-20T01:02:02;5.80;99.90
37460;DHT22;23318;50.966;5.284;2023-12-20T01:04:28;5.70;99.90
37460;DHT22;23318;50.966;5.284;2023-12-20T01:06:53;5.70;99.90
37460;DHT22;23318;50.966;5.284;2023-12-20T01:09:19;5.70;99.90
37460;DHT22;23318;50.966;5.284;2023-12-20T01:11:45;5.60;99.90
37460;DHT22;23318;50.966;5.284;2023-12-20T01:14:13;5.60;99.90
37460;DHT22;23318;50.966;5.284;2023-12-20T01:16:39;5.60;99.90
37460;DHT22;23318;50.966;5.284;2023-12-20T01:19:04;5.70;99.90
37460;DHT22;23318;50.966;5.284;2023-12-20T01:21:30;5.80;99.90
37460;DHT22;23318;50.966;5.284;2023-12-20T01:23:55;5.80;99.90
37460;DHT22;23318;50.966;5.284;2023-12-20T01:26:21;5.80;99.90
37460;DHT22;23318;50.966;5.284;2023-12-20T01:28:47;5.80;99.90
37460;DHT22;23318;50.966;5.284;2023-12-20T01:31:13;5.70;99.90
37460;DHT22;23318;50.966;5.284;2023-12-20T01:33:38;5.60;99.90
37460;DHT22;23318;50.966;5.284;2023-12-20T01:36:04;5.50;99.90
37460;DHT22;23318;50.966;5.284;2023-12-20T01:38:30;5.40;99.90
37460;DHT22;23318;50.966;5.284;2023-12-20T01:40:55;5.50;99.90
37460;DHT22;23318;50.966;5.284;2023-12-20T01:43:21;5.40;99.90
37460;DHT22;23318;50.966;5.284;2023-12-20T01:45:47;5.40;99.90
37460;DHT22;23318;50.966;5.284;2023-12-20T01:48:13;5.40;99.90
37460;DHT22;23318;50.966;5.284;2023-12-20T01:50:40;5.40;99.90
37460;DHT22;23318;50.966;5.284;2023-12-20T01:53:08;5.40;99.90
37460;DHT22;23318;50.966;5.284;2023-12-20T01:55:36;5.40;99.90
37460;DHT22;23318;50.966;5.284;2023-12-20T01:58:04;5.50;99.90
37460;DHT22;23318;50.966;5.284;2023-12-20T02:00:30;5.40;99.90
37460;DHT22;23318;50.966;5.284;2023-12-20T02:02:58;5.40;99.90
37460;DHT22;23318;50.966;5.284;2023-12-20T02:05:26;5.40;99.90
37460;DHT22;23318;50.966;5.284;2023-12-20T02:07:53;5.50;99.90
37460;DHT22;23318;50.966;5.284;2023-12-20T02:10:19;5.50;99.90
37460;DHT22;23318;50.966;5.284;2023-12-20T02:12:45;5.40;99.90
37460;DHT22;23318;50.966;5.284;2023-12-20T02:15:10;5.40;99.90
37460;DHT22;23318;50.966;5.284;2023-12-20T02:17:36;5.40;99.90
37460;DHT22;23318;50.966;5.284;2023-12-20T02:20:04;5.40;99.90
37460;DHT22;23318;50.966;5.284;2023-12-20T02:22:31;5.40;99.90
37460;DHT22;23318;50.966;5.284;2023-12-20T02:24:56;5.30;99.90
37460;DHT22;23318;50.966;5.284;2023-12-20T02:27:23;5.30;99.90
37460;DHT22;23318;50.966;5.284;2023-12-20T02:29:49;5.30;99.90
37460;DHT22;23318;50.966;5.284;2023-12-20T02:32:18;5.30;99.90
37460;DHT22;23318;50.966;5.284;2023-12-20T02:34:45;5.30;99.90
37460;DHT22;23318;50.966;5.284;2023-12-20T02:37:11;5.20;99.90
37460;DHT22;23318;50.966;5.284;2023-12-20T02:39:36;5.30;99.90
37460;DHT22;23318;50.966;5.284;2023-12-20T02:42:02;5.30;99.90
37460;DHT22;23318;50.966;5.284;2023-12-20T02:44:28;5.30;99.90
37460;DHT22;23318;50.966;5.284;2023-12-20T02:46:54;5.30;99.90
37460;DHT22;23318;50.966;5.284;2023-12-20T02:49:19;5.30;99.90
37460;DHT22;23318;50.966;5.284;2023-12-20T02:51:45;5.30;99.90
37460;DHT22;23318;50.966;5.284;2023-12-20T02:54:11;5.20;99.90
37460;DHT22;23318;50.966;5.284;2023-12-20T02:56:37;5.20;99.90
37460;DHT22;23318;50.966;5.284;2023-12-20T02:59:03;5.20;99.90
37460;DHT22;23318;50.966;5.284;2023-12-20T03:01:31;5.20;99.90
37460;DHT22;23318;50.966;5.284;2023-12-20T03:03:56;5.20;99.90
37460;DHT22;23318;50.966;5.284;2023-12-20T03:06:22;5.20;99.90
37460;DHT22;23318;50.966;5.284;2023-12-20T03:08:48;5.30;99.90
37460;DHT22;23318;50.966;5.284;2023-12-20T03:11:13;5.30;99.90
37460;DHT22;23318;50.966;5.284;2023-12-20T03:13:39;5.40;99.90
37460;DHT22;23318;50.966;5.284;2023-12-20T03:16:09;5.40;99.90
37460;DHT22;23318;50.966;5.284;2023-12-20T03:18:34;5.50;99.90
37460;DHT22;23318;50.966;5.284;2023-12-20T03:21:00;5.50;99.90
37460;DHT22;23318;50.966;5.284;2023-12-20T03:23:26;5.40;99.90
37460;DHT22;23318;50.966;5.284;2023-12-20T03:25:52;5.50;99.90
37460;DHT22;23318;50.966;5.284;2023-12-20T03:28:18;5.50;99.90
37460;DHT22;23318;50.966;5.284;2023-12-20T03:30:44;5.50;99.90
37460;DHT22;23318;50.966;5.284;2023-12-20T03:33:10;5.50;99.90
37460;DHT22;23318;50.966;5.284;2023-12-20T03:35:36;5.40;99.90
37460;DHT22;23318;50.966;5.284;2023-12-20T03:38:01;5.40;99.90
37460;DHT22;23318;50.966;5.284;2023-12-20T03:40:27;5.40;99.90
37460;DHT22;23318;50.966;5.284;2023-12-20T03:42:53;5.40;99.90
37460;DHT22;23318;50.966;5.284;2023-12-20T03:45:18;5.40;99.90
37460;DHT22;23318;50.966;5.284;2023-12-20T03:47:44;5.40;99.90
37460;DHT22;23318;50.966;5.284;2023-12-20T03:50:10;5.40;99.90
37460;DHT22;23318;50.966;5.284;2023-12-20T03:52:35;5.40;99.90
37460;DHT22;23318;50.966;5.284;2023-12-20T03:55:01;5.40;99.90
37460;DHT22;23318;50.966;5.284;2023-12-20T03:57:26;5.50;99.90
37460;DHT22;23318;50.966;5.284;2023-12-20T03:59:52;5.50;99.90
37460;DHT22;23318;50.966;5.284;2023-12-20T04:02:18;5.50;99.90
37460;DHT22;23318;50.966;5.284;2023-12-20T04:04:43;5.50;99.90
37460;DHT22;23318;50.966;5.284;2023-12-20T04:07:09;5.50;99.90
37460;DHT22;23318;50.966;5.284;2023-12-20T04:09:35;5.60;99.90
37460;DHT22;23318;50.966;5.284;2023-12-20T04:12:00;5.60;99.90
37460;DHT22;23318;50.966;5.284;2023-12-20T04:14:26;5.60;99.90
37460;DHT22;23318;50.966;5.284;2023-12-20T04:16:53;5.70;99.90
37460;DHT22;23318;50.966;5.284;2023-12-20T04:19:19;5.60;99.90
37460;DHT22;23318;50.966;5.284;2023-12-20T04:21:44;5.70;99.90
37460;DHT22;23318;50.966;5.284;2023-12-20T04:24:10;5.70;99.90
37460;DHT22;23318;50.966;5.284;2023-12-20T04:26:36;5.70;99.90
37460;DHT22;23318;50.966;5.284;2023-12-20T04:29:01;5.70;99.90
37460;DHT22;23318;50.966;5.284;2023-12-20T04:31:27;5.80;99.90
37460;DHT22;23318;50.966;5.284;2023-12-20T04:33:53;5.80;99.90
37460;DHT22;23318;50.966;5.284;2023-12-20T04:36:18;5.80;99.90
37460;DHT22;23318;50.966;5.284;2023-12-20T04:38:44;5.80;99.90
37460;DHT22;23318;50.966;5.284;2023-12-20T04:41:10;5.80;99.90
37460;DHT22;23318;50.966;5.284;2023-12-20T04:43:35;5.90;99.90
37460;DHT22;23318;50.966;5.284;2023-12-20T04:46:01;5.90;99.90
37460;DHT22;23318;50.966;5.284;2023-12-20T04:48:27;5.90;99.90
37460;DHT22;23318;50.966;5.284;2023-12-20T04:50:53;5.90;99.90
37460;DHT22;23318;50.966;5.284;2023-12-20T04:53:19;5.90;99.90
37460;DHT22;23318;50.966;5.284;2023-12-20T04:55:44;5.80;99.90
37460;DHT22;23318;50.966;5.284;2023-12-20T04:58:10;5.90;99.90
37460;DHT22;23318;50.966;5.284;2023-12-20T05:00:35;5.90;99.90
37460;DHT22;23318;50.966;5.284;2023-12-20T05:03:01;5.90;99.90
37460;DHT22;23318;50.966;5.284;2023-12-20T05:05:27;5.90;99.90
37460;DHT22;23318;50.966;5.284;2023-12-20T05:07:52;5.90;99.90
37460;DHT22;23318;50.966;5.284;2023-12-20T05:10:18;5.90;99.90
37460;DHT22;23318;50.966;5.284;2023-12-20T05:12:44;5.80;99.90
37460;DHT22;23318;50.966;5.284;2023-12-20T05:15:09;5.70;99.90
37460;DHT22;23318;50.966;5.284;2023-12-20T05:17:35;5.80;99.90
37460;DHT22;23318;50.966;5.284;2023-12-20T05:20:01;5.70;99.90
37460;DHT22;23318;50.966;5.284;2023-12-20T05:22:26;5.70;99.90
37460;DHT22;23318;50.966;5.284;2023-12-20T05:24:53;5.60;99.90
37460;DHT22;23318;50.966;5.284;2023-12-20T05:27:18;5.60;99.90
37460;DHT22;23318;50.966;5.284;2023-12-20T05:29:44;5.60;99.90
37460;DHT22;23318;50.966;5.284;2023-12-20T05:32:10;5.50;99.90
37460;DHT22;23318;50.966;5.284;2023-12-20T05:34:35;5.40;99.90
37460;DHT22;23318;50.966;5.284;2023-12-20T05:37:02;5.40;99.90
37460;DHT22;23318;50.966;5.284;2023-12-20T05:39:27;5.40;99.90
37460;DHT22;23318;50.966;5.284;2023-12-20T05:41:53;5.40;99.90
37460;DHT22;23318;50.966;5.284;2023-12-20T05:44:19;5.30;99.90
37460;DHT22;23318;50.966;5.284;2023-12-20T05:46:44;5.20;99.90
37460;DHT22;23318;50.966;5.284;2023-12-20T05:49:10;5.20;99.90
37460;DHT22;23318;50.966;5.284;2023-12-20T05:51:36;5.10;99.90
37460;DHT22;23318;50.966;5.284;2023-12-20T05:54:01;5.10;99.90
37460;DHT22;23318;50.966;5.284;2023-12-20T05:56:27;5.10;99.90
37460;DHT22;23318;50.966;5.284;2023-12-20T05:58:53;5.10;99.90
37460;DHT22;23318;50.966;5.284;2023-12-20T06:01:18;5.10;99.90
37460;DHT22;23318;50.966;5.284;2023-12-20T06:03:44;5.00;99.90
37460;DHT22;23318;50.966;5.284;2023-12-20T06:06:11;5.00;99.90
37460;DHT22;23318;50.966;5.284;2023-12-20T06:08:38;5.00;99.90
37460;DHT22;23318;50.966;5.284;2023-12-20T06:11:04;4.90;99.90
37460;DHT22;23318;50.966;5.284;2023-12-20T06:13:31;4.90;99.90
37460;DHT22;23318;50.966;5.284;2023-12-20T06:15:56;4.90;99.90
37460;DHT22;23318;50.966;5.284;2023-12-20T06:18:22;4.90;99.90
37460;DHT22;23318;50.966;5.284;2023-12-20T06:20:48;4.90;99.90
37460;DHT22;23318;50.966;5.284;2023-12-20T06:23:14;4.90;99.90
37460;DHT22;23318;50.966;5.284;2023-12-20T06:25:40;4.90;99.90
37460;DHT22;23318;50.966;5.284;2023-12-20T06:28:05;5.00;99.90
37460;DHT22;23318;50.966;5.284;2023-12-20T06:30:31;5.10;99.90
37460;DHT22;23318;50.966;5.284;2023-12-20T06:32:58;5.10;99.90
37460;DHT22;23318;50.966;5.284;2023-12-20T06:35:24;5.10;99.90
37460;DHT22;23318;50.966;5.284;2023-12-20T06:37:50;5.10;99.90
37460;DHT22;23318;50.966;5.284;2023-12-20T06:40:16;5.20;99.90
37460;DHT22;23318;50.966;5.284;2023-12-20T06:42:41;5.20;99.90
37460;DHT22;23318;50.966;5.284;2023-12-20T06:45:07;5.20;99.90
37460;DHT22;23318;50.966;5.284;2023-12-20T06:47:33;5.30;99.90
37460;DHT22;23318;50.966;5.284;2023-12-20T06:49:59;5.30;99.90
37460;DHT22;23318;50.966;5.284;2023-12-20T06:52:25;5.40;99.90
37460;DHT22;23318;50.966;5.284;2023-12-20T06:54:50;5.40;99.90
37460;DHT22;23318;50.966;5.284;2023-12-20T06:57:16;5.40;99.90
37460;DHT22;23318;50.966;5.284;2023-12-20T06:59:42;5.40;99.90
37460;DHT22;23318;50.966;5.284;2023-12-20T07:02:08;5.40;99.90
37460;DHT22;23318;50.966;5.284;2023-12-20T07:04:35;5.30;99.90
37460;DHT22;23318;50.966;5.284;2023-12-20T07:07:04;5.20;99.90
37460;DHT22;23318;50.966;5.284;2023-12-20T07:09:29;5.20;99.90
37460;DHT22;23318;50.966;5.284;2023-12-20T07:11:55;5.10;99.90
37460;DHT22;23318;50.966;5.284;2023-12-20T07:14:21;5.20;99.90
37460;DHT22;23318;50.966;5.284;2023-12-20T07:16:47;5.10;99.90
37460;DHT22;23318;50.966;5.284;2023-12-20T07:19:13;5.10;99.90
37460;DHT22;23318;50.966;5.284;2023-12-20T07:21:38;5.10;99.90
37460;DHT22;23318;50.966;5.284;2023-12-20T07:24:04;5.10;99.90
37460;DHT22;23318;50.966;5.284;2023-12-20T07:26:30;5.10;99.90
37460;DHT22;23318;50.966;5.284;2023-12-20T07:28:56;5.10;99.90
37460;DHT22;23318;50.966;5.284;2023-12-20T07:31:21;5.20;99.90
37460;DHT22;23318;50.966;5.284;2023-12-20T07:33:47;5.10;99.90
37460;DHT22;23318;50.966;5.284;2023-12-20T07:36:13;5.20;99.90
37460;DHT22;23318;50.966;5.284;2023-12-20T07:38:39;5.20;99.90
37460;DHT22;23318;50.966;5.284;2023-12-20T07:41:04;5.20;99.90
37460;DHT22;23318;50.966;5.284;2023-12-20T07:43:30;5.10;99.90
37460;DHT22;23318;50.966;5.284;2023-12-20T07:45:56;5.10;99.90
37460;DHT22;23318;50.966;5.284;2023-12-20T07:48:21;5.20;99.90
37460;DHT22;23318;50.966;5.284;2023-12-20T07:50:47;5.00;99.90
37460;DHT22;23318;50.966;5.284;2023-12-20T07:53:13;5.20;99.90
37460;DHT22;23318;50.966;5.284;2023-12-20T07:55:39;5.20;99.90
37460;DHT22;23318;50.966;5.284;2023-12-20T07:58:04;5.20;99.90
37460;DHT22;23318;50.966;5.284;2023-12-20T08:00:30;5.20;99.90
37460;DHT22;23318;50.966;5.284;2023-12-20T08:02:56;5.10;99.90
37460;DHT22;23318;50.966;5.284;2023-12-20T08:05:22;5.10;99.90
37460;DHT22;23318;50.966;5.284;2023-12-20T08:07:47;5.00;99.90
37460;DHT22;23318;50.966;5.284;2023-12-20T08:10:13;5.00;99.90
37460;DHT22;23318;50.966;5.284;2023-12-20T08:12:39;4.90;99.90
37460;DHT22;23318;50.966;5.284;2023-12-20T08:15:05;5.00;99.90
37460;DHT22;23318;50.966;5.284;2023-12-20T08:17:31;4.90;99.90
37460;DHT22;23318;50.966;5.284;2023-12-20T08:19:57;4.90;99.90
37460;DHT22;23318;50.966;5.284;2023-12-20T08:22:23;5.00;99.90
37460;DHT22;23318;50.966;5.284;2023-12-20T08:24:49;5.00;99.90
37460;DHT22;23318;50.966;5.284;2023-12-20T08:27:14;5.20;99.90
37460;DHT22;23318;50.966;5.284;2023-12-20T08:29:40;5.20;99.90
37460;DHT22;23318;50.966;5.284;2023-12-20T08:32:06;5.30;99.90
37460;DHT22;23318;50.966;5.284;2023-12-20T08:34:31;5.30;99.90
37460;DHT22;23318;50.966;5.284;2023-12-20T08:36:57;5.40;99.90
37460;DHT22;23318;50.966;5.284;2023-12-20T08:39:22;5.50;99.90
37460;DHT22;23318;50.966;5.284;2023-12-20T08:41:48;5.50;99.90
37460;DHT22;23318;50.966;5.284;2023-12-20T08:44:14;5.50;99.90
37460;DHT22;23318;50.966;5.284;2023-12-20T08:46:40;5.60;99.90
37460;DHT22;23318;50.966;5.284;2023-12-20T08:49:05;5.60;99.90
37460;DHT22;23318;50.966;5.284;2023-12-20T08:51:31;5.70;99.90
37460;DHT22;23318;50.966;5.284;2023-12-20T08:53:56;5.70;99.90
37460;DHT22;23318;50.966;5.284;2023-12-20T08:56:22;5.70;99.90
37460;DHT22;23318;50.966;5.284;2023-12-20T08:58:48;5.80;99.90
37460;DHT22;23318;50.966;5.284;2023-12-20T09:01:14;5.80;99.90
37460;DHT22;23318;50.966;5.284;2023-12-20T09:03:40;5.80;99.90
37460;DHT22;23318;50.966;5.284;2023-12-20T09:06:06;5.80;99.90
37460;DHT22;23318;50.966;5.284;2023-12-20T09:08:32;5.70;99.90
37460;DHT22;23318;50.966;5.284;2023-12-20T09:10:58;5.80;99.90
37460;DHT22;23318;50.966;5.284;2023-12-20T09:13:24;5.70;99.90
37460;DHT22;23318;50.966;5.284;2023-12-20T09:15:55;5.70;99.90
37460;DHT22;23318;50.966;5.284;2023-12-20T09:18:21;5.70;99.90
37460;DHT22;23318;50.966;5.284;2023-12-20T09:20:46;5.70;99.90
37460;DHT22;23318;50.966;5.284;2023-12-20T09:23:12;5.80;99.90
37460;DHT22;23318;50.966;5.284;2023-12-20T09:25:37;5.80;99.90
37460;DHT22;23318;50.966;5.284;2023-12-20T09:28:03;5.80;99.90
37460;DHT22;23318;50.966;5.284;2023-12-20T09:30:29;5.80;99.90
37460;DHT22;23318;50.966;5.284;2023-12-20T09:32:55;5.80;99.90
37460;DHT22;23318;50.966;5.284;2023-12-20T09:35:21;5.90;99.90
37460;DHT22;23318;50.966;5.284;2023-12-20T09:37:47;5.90;99.90
37460;DHT22;23318;50.966;5.284;2023-12-20T09:40:13;6.00;99.90
37460;DHT22;23318;50.966;5.284;2023-12-20T09:42:56;6.10;99.90
37460;DHT22;23318;50.966;5.284;2023-12-20T09:45:22;6.20;99.90
37460;DHT22;23318;50.966;5.284;2023-12-20T09:47:49;6.40;99.90
37460;DHT22;23318;50.966;5.284;2023-12-20T09:50:17;6.60;99.90
37460;DHT22;23318;50.966;5.284;2023-12-20T09:52:44;6.70;99.90
37460;DHT22;23318;50.966;5.284;2023-12-20T09:55:11;6.80;99.90
37460;DHT22;23318;50.966;5.284;2023-12-20T09:57:37;6.70;99.90
37460;DHT22;23318;50.966;5.284;2023-12-20T10:00:03;6.70;99.90
37460;DHT22;23318;50.966;5.284;2023-12-20T10:02:31;6.70;99.90
37460;DHT22;23318;50.966;5.284;2023-12-20T10:04:57;6.90;99.90
37460;DHT22;23318;50.966;5.284;2023-12-20T10:07:23;6.90;99.90
37460;DHT22;23318;50.966;5.284;2023-12-20T10:09:51;7.10;99.90
37460;DHT22;23318;50.966;5.284;2023-12-20T10:12:18;7.20;99.90
37460;DHT22;23318;50.966;5.284;2023-12-20T10:14:44;7.00;99.90
37460;DHT22;23318;50.966;5.284;2023-12-20T10:17:10;7.00;99.90
37460;DHT22;23318;50.966;5.284;2023-12-20T10:19:36;7.20;99.90
37460;DHT22;23318;50.966;5.284;2023-12-20T10:22:04;7.20;99.90
37460;DHT22;23318;50.966;5.284;2023-12-20T10:24:30;7.10;99.90
37460;DHT22;23318;50.966;5.284;2023-12-20T10:27:07;7.10;99.90
37460;DHT22;23318;50.966;5.284;2023-12-20T10:29:37;7.00;99.90
37460;DHT22;23318;50.966;5.284;2023-12-20T10:32:22;7.00;99.90
37460;DHT22;23318;50.966;5.284;2023-12-20T10:34:49;7.00;99.90
37460;DHT22;23318;50.966;5.284;2023-12-20T10:37:15;7.20;99.90
37460;DHT22;23318;50.966;5.284;2023-12-20T10:39:42;7.30;99.90
37460;DHT22;23318;50.966;5.284;2023-12-20T10:42:10;7.30;99.90
37460;DHT22;23318;50.966;5.284;2023-12-20T10:44:36;7.30;99.90
37460;DHT22;23318;50.966;5.284;2023-12-20T10:47:03;7.40;99.90
37460;DHT22;23318;50.966;5.284;2023-12-20T10:49:31;7.40;99.90
37460;DHT22;23318;50.966;5.284;2023-12-20T10:51:59;7.50;99.90
37460;DHT22;23318;50.966;5.284;2023-12-20T10:54:27;7.40;99.90
37460;DHT22;23318;50.966;5.284;2023-12-20T10:56:53;7.50;99.90
37460;DHT22;23318;50.966;5.284;2023-12-20T10:59:20;7.60;99.90
37460;DHT22;23318;50.966;5.284;2023-12-20T11:01:48;7.60;99.90
37460;DHT22;23318;50.966;5.284;2023-12-20T11:04:19;7.60;99.90
37460;DHT22;23318;50.966;5.284;2023-12-20T11:06:54;7.60;99.90
37460;DHT22;23318;50.966;5.284;2023-12-20T11:09:28;7.60;99.90
37460;DHT22;23318;50.966;5.284;2023-12-20T11:12:13;7.60;99.90
37460;DHT22;23318;50.966;5.284;2023-12-20T11:14:52;7.60;99.90
37460;DHT22;23318;50.966;5.284;2023-12-20T11:17:18;7.70;99.90
37460;DHT22;23318;50.966;5.284;2023-12-20T11:22:35;7.80;99.90
37460;DHT22;23318;50.966;5.284;2023-12-20T11:27:34;7.60;99.90
37460;DHT22;23318;50.966;5.284;2023-12-20T11:30:03;7.60;99.90
37460;DHT22;23318;50.966;5.284;2023-12-20T11:32:29;7.50;99.90
37460;DHT22;23318;50.966;5.284;2023-12-20T11:34:59;7.50;99.90
37460;DHT22;23318;50.966;5.284;2023-12-20T11:37:35;7.50;99.90
37460;DHT22;23318;50.966;5.284;2023-12-20T11:40:08;7.50;99.90
37460;DHT22;23318;50.966;5.284;2023-12-20T11:42:49;7.40;99.90
37460;DHT22;23318;50.966;5.284;2023-12-20T11:45:17;7.40;99.90
37460;DHT22;23318;50.966;5.284;2023-12-20T11:47:46;7.40;99.90
37460;DHT22;23318;50.966;5.284;2023-12-20T11:50:12;7.40;99.90
37460;DHT22;23318;50.966;5.284;2023-12-20T11:52:38;7.50;99.90
37460;DHT22;23318;50.966;5.284;2023-12-20T11:55:04;7.60;99.90
37460;DHT22;23318;50.966;5.284;2023-12-20T11:57:31;7.50;99.90
37460;DHT22;23318;50.966;5.284;2023-12-20T11:59:57;7.50;99.90
37460;DHT22;23318;50.966;5.284;2023-12-20T12:02:22;7.40;99.90
37460;DHT22;23318;50.966;5.284;2023-12-20T12:04:49;7.40;99.90
37460;DHT22;23318;50.966;5.284;2023-12-20T12:07:18;7.30;99.90
37460;DHT22;23318;50.966;5.284;2023-12-20T12:09:44;7.30;99.90
37460;DHT22;23318;50.966;5.284;2023-12-20T12:12:11;7.30;99.90
37460;DHT22;23318;50.966;5.284;2023-12-20T12:14:38;7.30;99.90
37460;DHT22;23318;50.966;5.284;2023-12-20T12:17:04;7.40;99.90
37460;DHT22;23318;50.966;5.284;2023-12-20T12:19:30;7.30;99.90
37460;DHT22;23318;50.966;5.284;2023-12-20T12:22:07;7.20;99.90
37460;DHT22;23318;50.966;5.284;2023-12-20T12:24:36;7.20;99.90
37460;DHT22;23318;50.966;5.284;2023-12-20T12:27:02;7.10;99.90
37460;DHT22;23318;50.966;5.284;2023-12-20T12:29:28;7.20;99.90
37460;DHT22;23318;50.966;5.284;2023-12-20T12:31:53;7.20;99.90
37460;DHT22;23318;50.966;5.284;2023-12-20T12:34:19;7.20;99.90
37460;DHT22;23318;50.966;5.284;2023-12-20T12:36:45;7.20;99.90
37460;DHT22;23318;50.966;5.284;2023-12-20T12:39:15;7.20;99.90
37460;DHT22;23318;50.966;5.284;2023-12-20T12:41:44;7.20;99.90
37460;DHT22;23318;50.966;5.284;2023-12-20T12:44:09;7.20;99.90
37460;DHT22;23318;50.966;5.284;2023-12-20T12:46:35;7.20;99.90
37460;DHT22;23318;50.966;5.284;2023-12-20T12:49:01;7.20;99.90
37460;DHT22;23318;50.966;5.284;2023-12-20T12:51:26;7.30;99.90
37460;DHT22;23318;50.966;5.284;2023-12-20T12:53:52;7.30;99.90
37460;DHT22;23318;50.966;5.284;2023-12-20T12:56:18;7.40;99.90
37460;DHT22;23318;50.966;5.284;2023-12-20T12:58:44;7.40;99.90
37460;DHT22;23318;50.966;5.284;2023-12-20T13:01:09;7.30;99.90
37460;DHT22;23318;50.966;5.284;2023-12-20T13:03:35;7.40;99.90
37460;DHT22;23318;50.966;5.284;2023-12-20T13:06:01;7.30;99.90
37460;DHT22;23318;50.966;5.284;2023-12-20T13:08:29;7.40;99.90
37460;DHT22;23318;50.966;5.284;2023-12-20T13:10:55;7.40;99.90
37460;DHT22;23318;50.966;5.284;2023-12-20T13:13:22;7.40;99.90
37460;DHT22;23318;50.966;5.284;2023-12-20T13:15:48;7.50;99.90
37460;DHT22;23318;50.966;5.284;2023-12-20T13:18:18;7.50;99.90
37460;DHT22;23318;50.966;5.284;2023-12-20T13:20:44;7.60;99.90
37460;DHT22;23318;50.966;5.284;2023-12-20T13:23:10;7.70;99.90
37460;DHT22;23318;50.966;5.284;2023-12-20T13:25:36;7.70;99.90
37460;DHT22;23318;50.966;5.284;2023-12-20T13:28:01;7.70;99.90
37460;DHT22;23318;50.966;5.284;2023-12-20T13:30:28;7.60;99.90
37460;DHT22;23318;50.966;5.284;2023-12-20T13:32:54;7.60;99.90
37460;DHT22;23318;50.966;5.284;2023-12-20T13:35:19;7.50;99.90
37460;DHT22;23318;50.966;5.284;2023-12-20T13:37:46;7.60;99.90
37460;DHT22;23318;50.966;5.284;2023-12-20T13:40:12;7.50;99.90
37460;DHT22;23318;50.966;5.284;2023-12-20T13:42:38;7.50;99.90
37460;DHT22;23318;50.966;5.284;2023-12-20T13:45:05;7.50;99.90
37460;DHT22;23318;50.966;5.284;2023-12-20T13:47:31;7.50;99.90
37460;DHT22;23318;50.966;5.284;2023-12-20T13:49:57;7.60;99.90
37460;DHT22;23318;50.966;5.284;2023-12-20T13:52:22;7.60;99.90
37460;DHT22;23318;50.966;5.284;2023-12-20T13:54:48;7.60;99.90
37460;DHT22;23318;50.966;5.284;2023-12-20T13:57:14;7.60;99.90
37460;DHT22;23318;50.966;5.284;2023-12-20T13:59:40;7.60;99.90
37460;DHT22;23318;50.966;5.284;2023-12-20T14:02:06;7.50;99.90
37460;DHT22;23318;50.966;5.284;2023-12-20T14:04:31;7.60;99.90
37460;DHT22;23318;50.966;5.284;2023-12-20T14:06:57;7.60;99.90
37460;DHT22;23318;50.966;5.284;2023-12-20T14:09:23;7.50;99.90
37460;DHT22;23318;50.966;5.284;2023-12-20T14:11:49;7.50;99.90
37460;DHT22;23318;50.966;5.284;2023-12-20T14:14:15;7.60;99.90
37460;DHT22;23318;50.966;5.284;2023-12-20T14:16:40;7.60;99.90
37460;DHT22;23318;50.966;5.284;2023-12-20T14:19:07;7.60;99.90
37460;DHT22;23318;50.966;5.284;2023-12-20T14:21:35;7.60;99.90
37460;DHT22;23318;50.966;5.284;2023-12-20T14:24:00;7.60;99.90
37460;DHT22;23318;50.966;5.284;2023-12-20T14:26:26;7.60;99.90
37460;DHT22;23318;50.966;5.284;2023-12-20T14:28:53;7.60;99.90
37460;DHT22;23318;50.966;5.284;2023-12-20T14:31:19;7.60;99.90
37460;DHT22;23318;50.966;5.284;2023-12-20T14:33:45;7.70;99.90
37460;DHT22;23318;50.966;5.284;2023-12-20T14:36:11;7.70;99.90
37460;DHT22;23318;50.966;5.284;2023-12-20T14:38:37;7.80;99.90
37460;DHT22;23318;50.966;5.284;2023-12-20T14:41:03;7.80;99.90
37460;DHT22;23318;50.966;5.284;2023-12-20T14:43:31;7.70;99.90
37460;DHT22;23318;50.966;5.284;2023-12-20T14:45:56;7.80;99.90
37460;DHT22;23318;50.966;5.284;2023-12-20T14:48:22;7.80;99.90
37460;DHT22;23318;50.966;5.284;2023-12-20T14:50:48;7.80;99.90
37460;DHT22;23318;50.966;5.284;2023-12-20T14:53:15;7.90;99.90
37460;DHT22;23318;50.966;5.284;2023-12-20T14:55:42;7.90;99.90
37460;DHT22;23318;50.966;5.284;2023-12-20T14:58:08;7.90;99.90
37460;DHT22;23318;50.966;5.284;2023-12-20T15:00:33;7.90;99.90
37460;DHT22;23318;50.966;5.284;2023-12-20T15:02:59;7.90;99.90
37460;DHT22;23318;50.966;5.284;2023-12-20T15:05:25;7.90;99.90
37460;DHT22;23318;50.966;5.284;2023-12-20T15:07:52;7.80;99.90
37460;DHT22;23318;50.966;5.284;2023-12-20T15:10:18;7.80;99.90
37460;DHT22;23318;50.966;5.284;2023-12-20T15:12:44;7.90;99.90
37460;DHT22;23318;50.966;5.284;2023-12-20T15:15:11;7.90;99.90
37460;DHT22;23318;50.966;5.284;2023-12-20T15:17:36;7.90;99.90
37460;DHT22;23318;50.966;5.284;2023-12-20T15:20:03;8.00;99.90
37460;DHT22;23318;50.966;5.284;2023-12-20T15:22:30;8.00;99.90
37460;DHT22;23318;50.966;5.284;2023-12-20T15:24:56;8.00;99.90
37460;DHT22;23318;50.966;5.284;2023-12-20T15:27:22;8.00;99.90
37460;DHT22;23318;50.966;5.284;2023-12-20T15:29:48;7.90;99.90
37460;DHT22;23318;50.966;5.284;2023-12-20T15:32:16;8.00;99.90
37460;DHT22;23318;50.966;5.284;2023-12-20T15:34:44;8.00;99.90
37460;DHT22;23318;50.966;5.284;2023-12-20T15:37:10;8.00;99.90
37460;DHT22;23318;50.966;5.284;2023-12-20T15:39:36;8.10;99.90
37460;DHT22;23318;50.966;5.284;2023-12-20T15:42:01;8.10;99.90
37460;DHT22;23318;50.966;5.284;2023-12-20T15:44:27;8.10;99.90